createdAt,value
2023-01-22T00:01:04.881Z,69.46
2023-01-22T00:03:32.371Z,69.46
2023-01-22T00:05:59.532Z,69.47
2023-01-22T00:08:26.687Z,69.53
2023-01-22T00:10:55.319Z,69.52
2023-01-22T00:13:24.528Z,69.35
2023-01-22T00:15:52.254Z,69.45
2023-01-22T00:18:20.173Z,69.47
2023-01-22T00:20:52.071Z,69.45
2023-01-22T00:23:20.082Z,69.32
2023-01-22T00:25:47.384Z,69.51
2023-01-22T00:28:15.935Z,69.58
2023-01-22T00:30:43.429Z,69.46
2023-01-22T00:33:10.199Z,69.42
2023-01-22T00:35:37.103Z,69.47
2023-01-22T00:38:04.622Z,69.55
2023-01-22T00:40:31.714Z,69.57
2023-01-22T00:42:59.103Z,69.40
2023-01-22T00:45:25.953Z,69.29
2023-01-22T00:47:53.147Z,69.30
2023-01-22T00:50:20.493Z,69.37
2023-01-22T00:52:47.788Z,69.37
2023-01-22T00:55:14.903Z,69.40
2023-01-22T00:57:41.989Z,69.36
2023-01-22T01:00:10.091Z,69.42
2023-01-22T01:03:00.286Z,69.46
2023-01-22T01:05:27.508Z,69.62
2023-01-22T01:07:54.641Z,69.57
2023-01-22T01:10:21.861Z,69.57
2023-01-22T01:12:49.345Z,69.75
2023-01-22T01:15:16.487Z,69.86
2023-01-22T01:17:43.597Z,69.81
2023-01-22T01:20:11.262Z,69.95
2023-01-22T01:22:38.618Z,70.08
2023-01-22T01:25:06.021Z,70.10
2023-01-22T01:27:33.175Z,70.06
2023-01-22T01:30:00.584Z,70.11
2023-01-22T01:32:27.727Z,70.20
2023-01-22T01:34:54.820Z,70.16
2023-01-22T01:37:21.951Z,70.09
2023-01-22T01:39:52.782Z,70.14
2023-01-22T01:42:31.970Z,70.19
2023-01-22T01:45:29.443Z,70.23
2023-01-22T01:48:27.581Z,70.09
2023-01-22T01:51:04.889Z,70.01
2023-01-22T01:53:33.327Z,70.04
2023-01-22T01:56:03.128Z,70.16
2023-01-22T01:58:34.539Z,70.21
2023-01-22T02:01:10.648Z,70.17
2023-01-22T02:03:38.118Z,70.19
2023-01-22T02:06:05.507Z,70.24
2023-01-22T02:08:32.581Z,70.11
2023-01-22T02:11:00.022Z,70.03
2023-01-22T02:13:31.956Z,70.25
2023-01-22T02:15:59.437Z,70.18
2023-01-22T02:18:27.317Z,70.24
2023-01-22T02:20:55.640Z,70.21
2023-01-22T02:23:23.339Z,70.30
2023-01-22T02:25:50.680Z,70.42
2023-01-22T02:28:17.859Z,70.35
2023-01-22T02:30:46.302Z,70.46
2023-01-22T02:33:13.432Z,70.41
2023-01-22T02:35:40.525Z,70.26
2023-01-22T02:38:08.018Z,70.40
2023-01-22T02:40:34.931Z,70.33
2023-01-22T02:43:02.351Z,70.31
2023-01-22T02:45:29.842Z,70.40
2023-01-22T02:47:56.933Z,70.49
2023-01-22T02:50:23.965Z,70.30
2023-01-22T02:52:51.048Z,70.24
2023-01-22T02:55:18.186Z,70.19
2023-01-22T02:57:45.307Z,70.12
2023-01-22T03:00:13.023Z,70.13
2023-01-22T03:02:40.085Z,70.15
2023-01-22T03:05:07.412Z,70.08
2023-01-22T03:07:45.367Z,70.01
2023-01-22T03:10:19.068Z,70.01
2023-01-22T03:13:06.846Z,70.14
2023-01-22T03:15:52.731Z,70.14
2023-01-22T03:18:38.753Z,69.98
2023-01-22T03:21:15.932Z,69.87
2023-01-22T03:23:51.711Z,69.83
2023-01-22T03:26:21.056Z,69.92
2023-01-22T03:28:48.461Z,69.89
2023-01-22T03:31:16.893Z,69.84
2023-01-22T03:33:43.973Z,69.85
2023-01-22T03:36:13.505Z,69.91
2023-01-22T03:38:41.291Z,69.70
2023-01-22T03:41:14.644Z,69.82
2023-01-22T03:43:42.640Z,69.65
2023-01-22T03:46:18.201Z,69.60
2023-01-22T03:48:50.201Z,69.72
2023-01-22T03:51:17.526Z,69.56
2023-01-22T03:53:45.791Z,69.71
2023-01-22T03:56:16.145Z,69.91
2023-01-22T03:58:43.542Z,69.94
2023-01-22T04:01:13.694Z,70.02
2023-01-22T04:03:40.769Z,69.90
2023-01-22T04:06:09.533Z,70.17
2023-01-22T04:08:37.800Z,70.41
2023-01-22T04:11:05.420Z,70.36
2023-01-22T04:13:34.168Z,70.42
2023-01-22T04:16:01.974Z,70.50
2023-01-22T04:18:28.815Z,70.53
2023-01-22T04:20:55.827Z,70.72
2023-01-22T04:23:24.097Z,70.74
2023-01-22T04:25:51.776Z,70.73
2023-01-22T04:28:19.891Z,70.89
2023-01-22T04:30:49.651Z,71.06
2023-01-22T04:33:16.793Z,71.25
2023-01-22T04:35:44.237Z,71.36
2023-01-22T04:38:13.847Z,71.34
2023-01-22T04:40:40.756Z,71.49
2023-01-22T04:43:09.997Z,71.39
2023-01-22T04:45:37.084Z,71.62
2023-01-22T04:48:04.335Z,71.84
2023-01-22T04:50:33.363Z,71.96
2023-01-22T04:53:01.136Z,72.08
2023-01-22T04:55:29.058Z,71.98
2023-01-22T04:57:57.898Z,71.98
2023-01-22T05:00:25.936Z,72.07
2023-01-22T05:02:57.619Z,72.07
2023-01-22T05:05:25.448Z,72.11
2023-01-22T05:07:53.127Z,72.11
2023-01-22T05:10:20.903Z,72.21
2023-01-22T05:12:48.177Z,72.22
2023-01-22T05:15:23.975Z,72.28
2023-01-22T05:17:53.422Z,72.35
2023-01-22T05:20:21.585Z,72.32
2023-01-22T05:22:49.230Z,72.33
2023-01-22T05:25:16.511Z,72.38
2023-01-22T05:27:44.187Z,72.40
2023-01-22T05:30:12.703Z,72.40
2023-01-22T05:32:40.060Z,72.38
2023-01-22T05:35:07.702Z,72.42
2023-01-22T05:37:34.985Z,72.49
2023-01-22T05:40:02.068Z,72.50
2023-01-22T05:42:29.657Z,72.53
2023-01-22T05:44:56.744Z,72.42
2023-01-22T05:47:23.827Z,72.50
2023-01-22T05:49:50.654Z,72.49
2023-01-22T05:52:17.781Z,72.48
2023-01-22T05:54:44.897Z,72.44
2023-01-22T05:57:12.310Z,72.42
2023-01-22T05:59:39.953Z,72.49
2023-01-22T06:02:07.084Z,72.54
2023-01-22T06:04:34.212Z,72.44
2023-01-22T06:07:01.350Z,72.35
2023-01-22T06:09:28.447Z,72.37
2023-01-22T06:11:55.591Z,72.45
2023-01-22T06:14:22.734Z,72.48
2023-01-22T06:16:50.500Z,72.45
2023-01-22T06:19:17.594Z,72.42
2023-01-22T06:21:44.751Z,72.45
2023-01-22T06:24:12.052Z,72.49
2023-01-22T06:26:39.328Z,72.48
2023-01-22T06:29:06.669Z,72.42
2023-01-22T06:31:33.936Z,72.53
2023-01-22T06:34:01.172Z,72.48
2023-01-22T06:36:28.354Z,72.37
2023-01-22T06:38:55.228Z,72.27
2023-01-22T06:41:23.101Z,72.15
2023-01-22T06:43:50.297Z,72.06
2023-01-22T06:46:17.824Z,72.06
2023-01-22T06:48:44.756Z,72.07
2023-01-22T06:51:11.779Z,72.10
2023-01-22T06:53:39.895Z,72.17
2023-01-22T06:56:07.490Z,71.96
2023-01-22T06:58:34.646Z,72.04
2023-01-22T07:01:02.561Z,71.95
2023-01-22T07:03:29.983Z,71.80
2023-01-22T07:05:59.328Z,71.74
2023-01-22T07:08:27.877Z,71.97
2023-01-22T07:10:55.596Z,72.08
2023-01-22T07:13:22.879Z,72.13
2023-01-22T07:15:49.809Z,72.17
2023-01-22T07:18:20.284Z,72.14
2023-01-22T07:20:47.571Z,72.15
2023-01-22T07:23:14.742Z,72.10
2023-01-22T07:25:42.490Z,72.25
2023-01-22T07:28:10.641Z,72.35
2023-01-22T07:30:37.866Z,72.42
2023-01-22T07:33:04.955Z,72.46
2023-01-22T07:35:32.056Z,72.54
2023-01-22T07:38:00.408Z,72.53
2023-01-22T07:40:28.331Z,72.65
2023-01-22T07:42:55.813Z,72.75
2023-01-22T07:45:25.087Z,72.76
2023-01-22T07:47:54.579Z,72.72
2023-01-22T07:50:23.715Z,72.67
2023-01-22T07:52:51.156Z,72.73
2023-01-22T07:55:18.991Z,72.85
2023-01-22T07:57:46.241Z,72.85
2023-01-22T08:00:16.197Z,72.89
2023-01-22T08:02:43.528Z,72.89
2023-01-22T08:05:13.714Z,72.89
2023-01-22T08:07:40.864Z,72.93
2023-01-22T08:10:09.706Z,72.97
2023-01-22T08:12:38.863Z,72.95
2023-01-22T08:15:06.464Z,73.04
2023-01-22T08:17:33.579Z,73.15
2023-01-22T08:20:00.743Z,73.24
2023-01-22T08:22:28.137Z,73.25
2023-01-22T08:24:55.243Z,73.38
2023-01-22T08:27:22.780Z,73.37
2023-01-22T08:29:52.955Z,73.33
2023-01-22T08:32:20.213Z,73.34
2023-01-22T08:34:47.351Z,73.41
2023-01-22T08:37:14.142Z,73.58
2023-01-22T08:39:41.258Z,73.62
2023-01-22T08:42:08.303Z,73.63
2023-01-22T08:44:35.744Z,73.64
2023-01-22T08:47:03.153Z,73.65
2023-01-22T08:49:30.998Z,73.64
2023-01-22T08:51:58.096Z,73.68
2023-01-22T08:54:26.643Z,73.82
2023-01-22T08:56:53.463Z,73.87
2023-01-22T08:59:20.649Z,73.86
2023-01-22T09:01:48.142Z,73.90
2023-01-22T09:04:15.562Z,73.88
2023-01-22T09:06:42.661Z,73.82
2023-01-22T09:09:09.757Z,73.80
2023-01-22T09:11:36.944Z,73.81
2023-01-22T09:14:04.152Z,73.76
2023-01-22T09:16:33.259Z,73.81
2023-01-22T09:19:00.709Z,73.89
2023-01-22T09:21:27.798Z,73.86
2023-01-22T09:23:54.887Z,73.89
2023-01-22T09:26:21.716Z,73.95
2023-01-22T09:28:48.821Z,73.98
2023-01-22T09:31:16.197Z,73.95
2023-01-22T09:33:43.133Z,74.04
2023-01-22T09:36:15.515Z,73.94
2023-01-22T09:38:43.648Z,73.89
2023-01-22T09:41:29.639Z,73.91
2023-01-22T09:44:11.880Z,73.98
2023-01-22T09:46:49.701Z,73.99
2023-01-22T09:49:17.986Z,73.95
2023-01-22T09:51:54.141Z,73.97
2023-01-22T09:54:22.030Z,73.98
2023-01-22T09:56:51.985Z,74.03
2023-01-22T09:59:24.181Z,74.04
2023-01-22T10:02:01.786Z,74.08
2023-01-22T10:04:37.754Z,74.11
2023-01-22T10:07:11.499Z,74.12
2023-01-22T10:09:41.094Z,74.03
2023-01-22T10:12:13.589Z,74.01
2023-01-22T10:14:43.203Z,74.11
2023-01-22T10:17:25.345Z,74.13
2023-01-22T10:19:56.803Z,74.06
2023-01-22T10:22:26.480Z,74.06
2023-01-22T10:24:53.844Z,73.98
2023-01-22T10:27:25.635Z,74.03
2023-01-22T10:30:04.769Z,74.05
2023-01-22T10:32:32.598Z,74.02
2023-01-22T10:35:05.814Z,74.01
2023-01-22T10:37:48.191Z,73.96
2023-01-22T10:40:22.036Z,74.03
2023-01-22T10:43:15.809Z,74.03
2023-01-22T10:45:56.681Z,73.99
2023-01-22T10:48:24.235Z,74.09
2023-01-22T10:51:24.891Z,74.00
2023-01-22T10:53:57.950Z,73.93
2023-01-22T10:56:36.830Z,73.91
2023-01-22T10:59:34.973Z,73.88
2023-01-22T11:02:17.171Z,73.93
2023-01-22T11:04:44.383Z,73.98
2023-01-22T11:07:31.633Z,73.91
2023-01-22T11:10:20.830Z,73.89
2023-01-22T11:12:59.595Z,73.90
2023-01-22T11:15:54.573Z,73.96
2023-01-22T11:18:36.595Z,73.95
2023-01-22T11:21:13.000Z,73.90
2023-01-22T11:24:14.570Z,73.92
2023-01-22T11:27:05.393Z,74.05
2023-01-22T11:29:51.533Z,74.06
2023-01-22T11:32:27.230Z,74.26
2023-01-22T11:34:57.336Z,74.02
2023-01-22T11:37:54.389Z,74.11
2023-01-22T11:40:35.198Z,74.09
2023-01-22T11:43:26.953Z,74.08
2023-01-22T11:46:09.697Z,74.10
2023-01-22T11:49:01.408Z,74.11
2023-01-22T11:51:53.068Z,74.19
2023-01-22T11:54:26.607Z,74.14
2023-01-22T11:57:03.035Z,74.13
2023-01-22T11:59:42.118Z,74.11
2023-01-22T12:02:51.072Z,74.14
2023-01-22T12:05:24.518Z,74.22
2023-01-22T12:07:54.048Z,74.22
2023-01-22T12:10:55.025Z,74.25
2023-01-22T12:13:34.776Z,74.26
2023-01-22T12:16:24.360Z,74.27
2023-01-22T12:19:09.720Z,74.22
2023-01-22T12:21:58.185Z,74.27
2023-01-22T12:24:32.118Z,74.26
2023-01-22T12:27:12.538Z,74.24
2023-01-22T12:29:45.174Z,74.24
2023-01-22T12:32:15.664Z,74.27
2023-01-22T12:34:50.124Z,74.29
2023-01-22T12:37:23.610Z,74.24
2023-01-22T12:40:16.874Z,74.24
2023-01-22T12:42:56.429Z,74.24
2023-01-22T12:45:49.468Z,74.17
2023-01-22T12:48:32.332Z,74.21
2023-01-22T12:50:59.408Z,74.22
2023-01-22T12:53:28.896Z,74.18
2023-01-22T12:56:14.246Z,74.15
2023-01-22T12:58:43.391Z,74.24
2023-01-22T13:01:11.782Z,74.16
2023-01-22T13:03:41.704Z,74.11
2023-01-22T13:06:22.845Z,74.05
2023-01-22T13:08:50.322Z,74.31
2023-01-22T13:11:32.929Z,74.48
2023-01-22T13:14:14.840Z,74.36
2023-01-22T13:17:11.001Z,74.37
2023-01-22T13:19:45.508Z,74.47
2023-01-22T13:22:25.812Z,74.26
2023-01-22T13:24:59.184Z,74.25
2023-01-22T13:27:32.168Z,74.26
2023-01-22T13:30:09.053Z,74.15
2023-01-22T13:32:36.081Z,74.06
2023-01-22T13:35:05.498Z,74.08
2023-01-22T13:37:35.800Z,74.00
2023-01-22T13:40:24.073Z,74.02
2023-01-22T13:42:51.657Z,74.08
2023-01-22T13:45:26.772Z,73.93
2023-01-22T13:48:06.500Z,73.86
2023-01-22T13:50:35.951Z,73.86
2023-01-22T13:53:03.992Z,73.84
2023-01-22T13:55:32.000Z,73.86
2023-01-22T13:58:02.620Z,73.89
2023-01-22T14:00:35.887Z,73.73
2023-01-22T14:03:19.093Z,73.67
2023-01-22T14:05:48.934Z,73.68
2023-01-22T14:08:18.297Z,73.58
2023-01-22T14:10:57.448Z,73.61
2023-01-22T14:13:25.736Z,73.57
2023-01-22T14:16:00.015Z,73.58
2023-01-22T14:18:31.173Z,73.57
2023-01-22T14:20:58.366Z,73.51
2023-01-22T14:23:26.224Z,73.46
2023-01-22T14:25:55.643Z,73.39
2023-01-22T14:28:24.804Z,73.44
2023-01-22T14:30:53.222Z,73.45
2023-01-22T14:33:28.112Z,73.43
2023-01-22T14:35:56.281Z,73.46
2023-01-22T14:38:27.005Z,73.50
2023-01-22T14:40:55.100Z,73.47
2023-01-22T14:43:23.576Z,73.50
2023-01-22T14:45:52.007Z,73.44
2023-01-22T14:48:21.150Z,73.44
2023-01-22T14:50:50.411Z,73.45
2023-01-22T14:53:19.532Z,73.35
2023-01-22T14:55:47.177Z,73.37
2023-01-22T14:58:16.309Z,73.35
2023-01-22T15:00:45.222Z,73.31
2023-01-22T15:03:12.960Z,73.24
2023-01-22T15:05:40.946Z,73.26
2023-01-22T15:08:08.660Z,73.31
2023-01-22T15:10:37.225Z,73.35
2023-01-22T15:13:05.580Z,73.32
2023-01-22T15:15:33.786Z,73.09
2023-01-22T15:18:02.292Z,73.12
2023-01-22T15:20:30.032Z,73.16
2023-01-22T15:22:57.877Z,73.09
2023-01-22T15:25:27.616Z,72.99
2023-01-22T15:27:58.037Z,72.99
2023-01-22T15:30:26.215Z,73.05
2023-01-22T15:32:54.031Z,73.06
2023-01-22T15:35:22.106Z,73.01
2023-01-22T15:37:50.508Z,73.02
2023-01-22T15:40:19.283Z,73.10
2023-01-22T15:42:47.084Z,73.10
2023-01-22T15:45:15.613Z,73.10
2023-01-22T15:47:44.257Z,73.09
2023-01-22T15:50:13.114Z,73.03
2023-01-22T15:52:43.859Z,72.95
2023-01-22T15:55:12.124Z,73.02
2023-01-22T15:57:40.461Z,73.01
2023-01-22T16:00:11.725Z,72.99
2023-01-22T16:02:39.967Z,73.05
2023-01-22T16:05:09.316Z,72.98
2023-01-22T16:07:40.853Z,72.96
2023-01-22T16:10:10.660Z,73.02
2023-01-22T16:12:39.444Z,73.03
2023-01-22T16:15:08.154Z,72.98
2023-01-22T16:17:36.235Z,72.96
2023-01-22T16:20:08.582Z,72.94
2023-01-22T16:22:36.628Z,73.01
2023-01-22T16:25:05.455Z,73.03
2023-01-22T16:27:33.772Z,73.00
2023-01-22T16:30:01.945Z,73.02
2023-01-22T16:32:30.013Z,72.94
2023-01-22T16:34:58.268Z,72.98
2023-01-22T16:37:26.904Z,72.97
2023-01-22T16:39:55.011Z,73.01
2023-01-22T16:42:23.132Z,73.02
2023-01-22T16:44:53.787Z,72.96
2023-01-22T16:47:22.327Z,72.98
2023-01-22T16:49:50.846Z,72.99
2023-01-22T16:52:23.172Z,72.98
2023-01-22T16:54:52.278Z,72.99
2023-01-22T16:57:21.443Z,73.01
2023-01-22T16:59:49.810Z,73.02
2023-01-22T17:02:19.550Z,72.97
2023-01-22T17:04:48.596Z,72.94
2023-01-22T17:07:32.770Z,72.94
2023-01-22T17:10:02.021Z,72.90
2023-01-22T17:12:30.228Z,72.90
2023-01-22T17:14:58.486Z,72.87
2023-01-22T17:17:27.137Z,72.86
2023-01-22T17:19:55.022Z,72.87
2023-01-22T17:22:24.510Z,72.86
2023-01-22T17:24:54.218Z,72.89
2023-01-22T17:27:22.702Z,72.95
2023-01-22T17:29:51.010Z,72.91
2023-01-22T17:32:21.457Z,72.91
2023-01-22T17:34:50.048Z,72.86
2023-01-22T17:37:18.868Z,72.81
2023-01-22T17:39:51.093Z,72.80
2023-01-22T17:42:21.684Z,72.85
2023-01-22T17:44:49.290Z,72.89
2023-01-22T17:47:18.182Z,72.86
2023-01-22T17:49:48.176Z,72.84
2023-01-22T17:52:19.198Z,72.84
2023-01-22T17:54:49.895Z,72.78
2023-01-22T17:57:18.239Z,72.85
2023-01-22T17:59:46.371Z,72.81
2023-01-22T18:02:14.782Z,72.89
2023-01-22T18:04:44.685Z,72.94
2023-01-22T18:07:13.827Z,72.92
2023-01-22T18:09:42.936Z,72.93
2023-01-22T18:12:10.933Z,72.98
2023-01-22T18:14:40.605Z,72.96
2023-01-22T18:17:09.078Z,72.96
2023-01-22T18:19:38.278Z,72.90
2023-01-22T18:22:07.627Z,72.86
2023-01-22T18:24:37.572Z,72.88
2023-01-22T18:27:09.739Z,72.85
2023-01-22T18:29:38.880Z,72.90
2023-01-22T18:32:07.644Z,72.91
2023-01-22T18:34:35.717Z,72.89
2023-01-22T18:37:03.638Z,72.83
2023-01-22T18:39:33.920Z,72.81
2023-01-22T18:42:01.837Z,72.78
2023-01-22T18:44:30.723Z,72.76
2023-01-22T18:47:02.156Z,72.71
2023-01-22T18:49:31.267Z,72.75
2023-01-22T18:52:01.279Z,72.77
2023-01-22T18:54:31.434Z,72.74
2023-01-22T18:57:00.241Z,72.76
2023-01-22T18:59:28.349Z,72.70
2023-01-22T19:01:58.296Z,72.68
2023-01-22T19:04:28.117Z,72.71
2023-01-22T19:07:08.770Z,72.73
2023-01-22T19:09:37.295Z,72.64
2023-01-22T19:12:07.989Z,72.58
2023-01-22T19:14:36.785Z,72.59
2023-01-22T19:17:06.939Z,72.62
2023-01-22T19:19:38.736Z,72.66
2023-01-22T19:22:07.509Z,72.58
2023-01-22T19:24:35.753Z,72.56
2023-01-22T19:27:04.801Z,72.59
2023-01-22T19:29:35.348Z,72.61
2023-01-22T19:32:07.021Z,72.53
2023-01-22T19:34:35.829Z,72.51
2023-01-22T19:37:07.330Z,72.45
2023-01-22T19:39:36.855Z,72.41
2023-01-22T19:42:07.388Z,72.47
2023-01-22T19:44:36.928Z,72.51
2023-01-22T19:47:05.925Z,72.57
2023-01-22T19:49:34.104Z,72.61
2023-01-22T19:52:03.472Z,72.64
2023-01-22T19:54:34.822Z,72.67
2023-01-22T19:57:08.234Z,72.62
2023-01-22T19:59:36.462Z,72.50
2023-01-22T20:02:05.735Z,72.46
2023-01-22T20:04:35.847Z,72.41
2023-01-22T20:07:08.761Z,72.17
2023-01-22T20:09:41.304Z,72.38
2023-01-22T20:12:12.975Z,72.45
2023-01-22T20:14:44.384Z,72.56
2023-01-22T20:17:14.726Z,72.60
2023-01-22T20:19:45.352Z,72.62
2023-01-22T20:22:15.463Z,72.63
2023-01-22T20:24:45.010Z,72.63
2023-01-22T20:27:15.063Z,72.53
2023-01-22T20:29:43.601Z,72.53
2023-01-22T20:32:14.089Z,72.54
2023-01-22T20:34:49.960Z,72.62
2023-01-22T20:37:18.635Z,72.66
2023-01-22T20:39:47.619Z,72.67
2023-01-22T20:42:16.041Z,72.69
2023-01-22T20:44:46.040Z,72.61
2023-01-22T20:47:15.546Z,72.58
2023-01-22T20:49:43.955Z,72.56
2023-01-22T20:52:12.945Z,72.57
2023-01-22T20:54:54.884Z,72.56
2023-01-22T20:57:33.482Z,72.52
2023-01-22T21:00:03.352Z,72.56
2023-01-22T21:02:32.126Z,72.55
2023-01-22T21:05:03.885Z,72.56
2023-01-22T21:07:34.611Z,72.50
2023-01-22T21:10:02.657Z,72.52
2023-01-22T21:12:30.542Z,72.49
2023-01-22T21:14:59.495Z,72.47
2023-01-22T21:17:27.735Z,72.50
2023-01-22T21:19:56.972Z,72.43
2023-01-22T21:22:25.045Z,72.47
2023-01-22T21:24:53.518Z,72.47
2023-01-22T21:27:22.227Z,72.41
2023-01-22T21:29:52.107Z,72.46
2023-01-22T21:32:20.879Z,72.51
2023-01-22T21:34:48.827Z,72.53
2023-01-22T21:37:16.489Z,72.53
2023-01-22T21:39:47.767Z,72.50
2023-01-22T21:42:33.856Z,72.54
2023-01-22T21:45:27.484Z,72.51
2023-01-22T21:47:55.694Z,72.52
2023-01-22T21:50:24.087Z,72.50
2023-01-22T21:52:54.058Z,72.54
2023-01-22T21:55:24.776Z,72.47
2023-01-22T21:57:52.169Z,72.48
2023-01-22T22:00:19.924Z,72.52
2023-01-22T22:02:47.143Z,72.54
2023-01-22T22:05:14.453Z,72.49
2023-01-22T22:07:41.934Z,72.35
2023-01-22T22:10:12.632Z,72.06
2023-01-22T22:12:39.733Z,72.27
2023-01-22T22:15:10.203Z,72.31
2023-01-22T22:17:38.471Z,72.37
2023-01-22T22:20:06.191Z,72.38
2023-01-22T22:22:33.502Z,72.42
2023-01-22T22:25:00.887Z,72.43
2023-01-22T22:27:27.935Z,72.45
2023-01-22T22:29:55.249Z,72.45
2023-01-22T22:32:22.381Z,72.45
2023-01-22T22:34:50.204Z,72.46
2023-01-22T22:37:17.604Z,72.38
2023-01-22T22:39:45.014Z,72.42
2023-01-22T22:42:11.792Z,72.43
2023-01-22T22:44:38.585Z,72.35
2023-01-22T22:47:06.012Z,72.45
2023-01-22T22:49:32.851Z,72.50
2023-01-22T22:52:00.301Z,72.45
2023-01-22T22:54:27.501Z,72.43
2023-01-22T22:56:54.656Z,72.40
2023-01-22T22:59:22.609Z,72.35
2023-01-22T23:01:50.246Z,72.42
2023-01-22T23:04:18.078Z,72.53
2023-01-22T23:06:46.451Z,72.53
2023-01-22T23:09:20.006Z,72.56
2023-01-22T23:11:47.610Z,72.50
2023-01-22T23:14:15.012Z,72.49
2023-01-22T23:16:43.254Z,72.43
2023-01-22T23:19:21.615Z,72.51
2023-01-22T23:21:50.697Z,72.58
2023-01-22T23:24:17.833Z,72.52
2023-01-22T23:26:45.565Z,72.54
2023-01-22T23:29:16.322Z,72.48
2023-01-22T23:31:43.846Z,72.44
2023-01-22T23:34:17.338Z,72.44
2023-01-22T23:36:46.316Z,72.45
2023-01-22T23:39:17.254Z,72.33
2023-01-22T23:41:44.529Z,72.32
2023-01-22T23:44:12.318Z,72.35
2023-01-22T23:46:39.926Z,72.31
2023-01-22T23:49:06.746Z,71.96
2023-01-22T23:51:33.654Z,72.07
2023-01-22T23:54:01.071Z,72.29
2023-01-22T23:56:32.174Z,72.36
2023-01-22T23:58:59.877Z,72.39
